sensor_id;sensor_type;location;lat;lon;timestamp;pressure;altitude;pressure_sealevel;temperature;humidity
60267;BME280;46125;61.360;-149.532;2023-06-19T00:00:06;100353.30;;;24.66;29.27
60267;BME280;46125;61.360;-149.532;2023-06-19T00:02:34;100348.21;;;25.34;26.52
60267;BME280;46125;61.360;-149.532;2023-06-19T00:05:03;100346.06;;;23.41;28.78
60267;BME280;46125;61.360;-149.532;2023-06-19T00:07:32;100351.45;;;24.41;29.59
60267;BME280;46125;61.360;-149.532;2023-06-19T00:10:00;100347.44;;;24.63;29.27
60267;BME280;46125;61.360;-149.532;2023-06-19T00:12:28;100348.17;;;23.42;28.83
60267;BME280;46125;61.360;-149.532;2023-06-19T00:14:57;100343.12;;;22.76;27.89
60267;BME280;46125;61.360;-149.532;2023-06-19T00:17:25;100343.45;;;23.53;28.31
60267;BME280;46125;61.360;-149.532;2023-06-19T00:19:54;100342.99;;;23.62;33.33
60267;BME280;46125;61.360;-149.532;2023-06-19T00:22:22;100342.27;;;24.59;29.63
60267;BME280;46125;61.360;-149.532;2023-06-19T00:24:51;100339.53;;;24.38;29.12
60267;BME280;46125;61.360;-149.532;2023-06-19T00:27:19;100341.96;;;24.99;28.44
60267;BME280;46125;61.360;-149.532;2023-06-19T00:29:48;100338.24;;;24.83;29.09
60267;BME280;46125;61.360;-149.532;2023-06-19T00:32:16;100341.12;;;24.03;29.08
60267;BME280;46125;61.360;-149.532;2023-06-19T00:34:45;100337.61;;;23.53;28.74
60267;BME280;46125;61.360;-149.532;2023-06-19T00:37:13;100334.94;;;24.61;26.77
60267;BME280;46125;61.360;-149.532;2023-06-19T00:39:42;100335.05;;;25.04;27.42
60267;BME280;46125;61.360;-149.532;2023-06-19T00:42:10;100341.30;;;24.91;28.80
60267;BME280;46125;61.360;-149.532;2023-06-19T00:44:40;100342.22;;;24.66;28.79
60267;BME280;46125;61.360;-149.532;2023-06-19T00:47:08;100339.65;;;25.16;28.54
60267;BME280;46125;61.360;-149.532;2023-06-19T00:49:37;100340.23;;;24.60;27.20
60267;BME280;46125;61.360;-149.532;2023-06-19T00:52:06;100341.85;;;25.22;29.04
60267;BME280;46125;61.360;-149.532;2023-06-19T00:54:35;100339.21;;;24.86;29.69
60267;BME280;46125;61.360;-149.532;2023-06-19T00:57:03;100340.20;;;23.98;32.18
60267;BME280;46125;61.360;-149.532;2023-06-19T00:59:32;100335.68;;;24.58;30.30
60267;BME280;46125;61.360;-149.532;2023-06-19T01:02:01;100337.67;;;25.67;29.82
60267;BME280;46125;61.360;-149.532;2023-06-19T01:04:29;100338.07;;;24.39;32.31
60267;BME280;46125;61.360;-149.532;2023-06-19T01:07:02;100336.74;;;23.14;32.48
60267;BME280;46125;61.360;-149.532;2023-06-19T01:09:38;100332.50;;;22.24;30.50
60267;BME280;46125;61.360;-149.532;2023-06-19T01:12:14;100329.37;;;24.07;28.99
60267;BME280;46125;61.360;-149.532;2023-06-19T01:14:50;100327.63;;;23.55;29.36
60267;BME280;46125;61.360;-149.532;2023-06-19T01:17:21;100326.95;;;23.80;32.29
60267;BME280;46125;61.360;-149.532;2023-06-19T01:19:50;100327.38;;;25.25;29.99
60267;BME280;46125;61.360;-149.532;2023-06-19T01:22:27;100327.12;;;24.35;30.31
60267;BME280;46125;61.360;-149.532;2023-06-19T01:24:55;100328.39;;;24.46;31.60
60267;BME280;46125;61.360;-149.532;2023-06-19T01:27:25;100327.73;;;24.72;28.70
60267;BME280;46125;61.360;-149.532;2023-06-19T01:29:54;100323.40;;;24.91;30.86
60267;BME280;46125;61.360;-149.532;2023-06-19T01:32:29;100320.34;;;25.12;29.73
60267;BME280;46125;61.360;-149.532;2023-06-19T01:34:59;100316.21;;;23.97;32.75
60267;BME280;46125;61.360;-149.532;2023-06-19T01:37:29;100315.17;;;23.69;30.85
60267;BME280;46125;61.360;-149.532;2023-06-19T01:39:59;100313.51;;;24.63;30.91
60267;BME280;46125;61.360;-149.532;2023-06-19T01:42:30;100309.75;;;22.86;32.82
60267;BME280;46125;61.360;-149.532;2023-06-19T01:44:58;100307.74;;;24.95;30.89
60267;BME280;46125;61.360;-149.532;2023-06-19T01:47:27;100308.84;;;25.18;30.33
60267;BME280;46125;61.360;-149.532;2023-06-19T01:49:55;100310.93;;;24.96;33.32
60267;BME280;46125;61.360;-149.532;2023-06-19T01:52:24;100308.96;;;23.88;32.46
60267;BME280;46125;61.360;-149.532;2023-06-19T01:54:53;100309.01;;;24.95;32.26
60267;BME280;46125;61.360;-149.532;2023-06-19T01:57:21;100310.70;;;24.13;32.69
60267;BME280;46125;61.360;-149.532;2023-06-19T01:59:51;100311.25;;;24.38;32.99
60267;BME280;46125;61.360;-149.532;2023-06-19T02:02:19;100308.22;;;23.96;32.28
60267;BME280;46125;61.360;-149.532;2023-06-19T02:04:48;100306.21;;;24.08;33.64
60267;BME280;46125;61.360;-149.532;2023-06-19T02:07:16;100306.45;;;25.32;32.02
60267;BME280;46125;61.360;-149.532;2023-06-19T02:09:45;100304.17;;;27.67;29.27
60267;BME280;46125;61.360;-149.532;2023-06-19T02:12:13;100297.62;;;28.52;26.78
60267;BME280;46125;61.360;-149.532;2023-06-19T02:14:42;100297.38;;;30.70;23.47
60267;BME280;46125;61.360;-149.532;2023-06-19T02:17:10;100297.26;;;30.94;24.89
60267;BME280;46125;61.360;-149.532;2023-06-19T02:19:39;100292.00;;;30.67;23.31
60267;BME280;46125;61.360;-149.532;2023-06-19T02:22:07;100298.99;;;28.14;26.47
60267;BME280;46125;61.360;-149.532;2023-06-19T02:24:36;100297.22;;;26.79;27.44
60267;BME280;46125;61.360;-149.532;2023-06-19T02:27:05;100297.30;;;28.34;28.15
60267;BME280;46125;61.360;-149.532;2023-06-19T02:29:34;100296.61;;;27.64;29.11
60267;BME280;46125;61.360;-149.532;2023-06-19T02:32:03;100298.13;;;27.66;26.54
60267;BME280;46125;61.360;-149.532;2023-06-19T02:34:31;100299.88;;;26.37;29.27
60267;BME280;46125;61.360;-149.532;2023-06-19T02:36:59;100300.87;;;24.35;31.48
60267;BME280;46125;61.360;-149.532;2023-06-19T02:39:28;100300.53;;;24.93;32.80
60267;BME280;46125;61.360;-149.532;2023-06-19T02:41:59;100293.02;;;23.61;33.59
60267;BME280;46125;61.360;-149.532;2023-06-19T02:44:37;100291.22;;;23.58;31.91
60267;BME280;46125;61.360;-149.532;2023-06-19T02:47:06;100292.40;;;24.84;31.96
60267;BME280;46125;61.360;-149.532;2023-06-19T02:49:35;100292.68;;;25.21;34.07
60267;BME280;46125;61.360;-149.532;2023-06-19T02:52:04;100296.50;;;24.88;29.63
60267;BME280;46125;61.360;-149.532;2023-06-19T02:54:32;100297.62;;;24.95;29.76
60267;BME280;46125;61.360;-149.532;2023-06-19T02:57:06;100295.69;;;24.04;33.97
60267;BME280;46125;61.360;-149.532;2023-06-19T02:59:45;100296.64;;;23.93;35.85
60267;BME280;46125;61.360;-149.532;2023-06-19T03:02:14;100296.05;;;23.39;34.33
60267;BME280;46125;61.360;-149.532;2023-06-19T03:04:43;100298.72;;;23.04;33.88
60267;BME280;46125;61.360;-149.532;2023-06-19T03:07:11;100296.31;;;24.49;34.31
60267;BME280;46125;61.360;-149.532;2023-06-19T03:09:40;100300.76;;;23.72;35.95
60267;BME280;46125;61.360;-149.532;2023-06-19T03:12:09;100300.54;;;23.10;33.25
60267;BME280;46125;61.360;-149.532;2023-06-19T03:14:38;100300.87;;;23.23;34.89
60267;BME280;46125;61.360;-149.532;2023-06-19T03:17:06;100301.07;;;21.98;34.71
60267;BME280;46125;61.360;-149.532;2023-06-19T03:19:35;100296.34;;;22.98;37.71
60267;BME280;46125;61.360;-149.532;2023-06-19T03:22:05;100295.97;;;22.96;35.60
60267;BME280;46125;61.360;-149.532;2023-06-19T03:24:48;100295.77;;;22.48;36.92
60267;BME280;46125;61.360;-149.532;2023-06-19T03:27:23;100296.22;;;23.11;33.65
60267;BME280;46125;61.360;-149.532;2023-06-19T03:29:51;100293.66;;;21.93;35.08
60267;BME280;46125;61.360;-149.532;2023-06-19T03:32:20;100293.26;;;23.14;33.97
60267;BME280;46125;61.360;-149.532;2023-06-19T03:34:48;100293.93;;;22.58;37.02
60267;BME280;46125;61.360;-149.532;2023-06-19T03:37:17;100293.87;;;22.74;35.45
60267;BME280;46125;61.360;-149.532;2023-06-19T03:39:45;100289.69;;;22.61;33.68
60267;BME280;46125;61.360;-149.532;2023-06-19T03:42:14;100292.74;;;21.89;34.31
60267;BME280;46125;61.360;-149.532;2023-06-19T03:44:42;100290.39;;;22.50;32.79
60267;BME280;46125;61.360;-149.532;2023-06-19T03:47:11;100285.76;;;22.23;35.41
60267;BME280;46125;61.360;-149.532;2023-06-19T03:49:39;100284.78;;;22.96;33.67
60267;BME280;46125;61.360;-149.532;2023-06-19T03:52:08;100288.45;;;25.11;30.10
60267;BME280;46125;61.360;-149.532;2023-06-19T03:54:36;100288.32;;;23.31;34.39
60267;BME280;46125;61.360;-149.532;2023-06-19T03:57:05;100290.07;;;23.68;31.89
60267;BME280;46125;61.360;-149.532;2023-06-19T03:59:34;100289.72;;;23.42;32.08
60267;BME280;46125;61.360;-149.532;2023-06-19T04:02:03;100289.16;;;22.62;31.78
60267;BME280;46125;61.360;-149.532;2023-06-19T04:04:34;100290.05;;;22.85;33.19
60267;BME280;46125;61.360;-149.532;2023-06-19T04:07:07;100292.12;;;21.83;32.96
60267;BME280;46125;61.360;-149.532;2023-06-19T04:09:36;100290.81;;;22.84;31.52
60267;BME280;46125;61.360;-149.532;2023-06-19T04:12:05;100290.15;;;22.68;33.43
60267;BME280;46125;61.360;-149.532;2023-06-19T04:14:34;100291.60;;;22.39;32.99
60267;BME280;46125;61.360;-149.532;2023-06-19T04:17:02;100292.74;;;22.44;32.76
60267;BME280;46125;61.360;-149.532;2023-06-19T04:19:31;100290.30;;;22.95;35.29
60267;BME280;46125;61.360;-149.532;2023-06-19T04:21:59;100293.92;;;21.13;33.04
60267;BME280;46125;61.360;-149.532;2023-06-19T04:24:27;100291.23;;;21.47;36.59
60267;BME280;46125;61.360;-149.532;2023-06-19T04:26:56;100293.14;;;20.71;36.79
60267;BME280;46125;61.360;-149.532;2023-06-19T04:29:24;100291.39;;;20.96;36.10
60267;BME280;46125;61.360;-149.532;2023-06-19T04:31:53;100289.68;;;21.49;34.22
60267;BME280;46125;61.360;-149.532;2023-06-19T04:34:21;100291.47;;;21.19;35.25
60267;BME280;46125;61.360;-149.532;2023-06-19T04:36:51;100286.00;;;21.39;34.13
60267;BME280;46125;61.360;-149.532;2023-06-19T04:39:19;100286.62;;;20.01;33.96
60267;BME280;46125;61.360;-149.532;2023-06-19T04:41:48;100288.80;;;20.20;36.19
60267;BME280;46125;61.360;-149.532;2023-06-19T04:44:16;100286.79;;;20.33;34.69
60267;BME280;46125;61.360;-149.532;2023-06-19T04:46:45;100284.25;;;20.42;35.49
60267;BME280;46125;61.360;-149.532;2023-06-19T04:49:13;100284.77;;;20.49;37.38
60267;BME280;46125;61.360;-149.532;2023-06-19T04:51:44;100281.21;;;20.44;35.83
60267;BME280;46125;61.360;-149.532;2023-06-19T04:54:13;100283.13;;;20.10;35.61
60267;BME280;46125;61.360;-149.532;2023-06-19T04:56:41;100283.53;;;19.96;33.86
60267;BME280;46125;61.360;-149.532;2023-06-19T04:59:09;100286.06;;;19.50;34.44
60267;BME280;46125;61.360;-149.532;2023-06-19T05:01:38;100290.67;;;19.33;35.64
60267;BME280;46125;61.360;-149.532;2023-06-19T05:04:06;100286.82;;;19.70;35.28
60267;BME280;46125;61.360;-149.532;2023-06-19T05:06:36;100283.98;;;19.76;36.66
60267;BME280;46125;61.360;-149.532;2023-06-19T05:09:10;100286.42;;;19.48;36.02
60267;BME280;46125;61.360;-149.532;2023-06-19T05:11:40;100289.96;;;19.36;33.81
60267;BME280;46125;61.360;-149.532;2023-06-19T05:14:08;100290.81;;;18.84;33.64
60267;BME280;46125;61.360;-149.532;2023-06-19T05:16:37;100294.07;;;18.39;34.96
60267;BME280;46125;61.360;-149.532;2023-06-19T05:19:05;100292.00;;;18.45;34.22
60267;BME280;46125;61.360;-149.532;2023-06-19T05:21:39;100296.68;;;18.91;35.77
60267;BME280;46125;61.360;-149.532;2023-06-19T05:24:08;100296.80;;;18.68;34.70
60267;BME280;46125;61.360;-149.532;2023-06-19T05:26:36;100298.95;;;18.23;36.97
60267;BME280;46125;61.360;-149.532;2023-06-19T05:29:04;100297.55;;;18.46;37.16
60267;BME280;46125;61.360;-149.532;2023-06-19T05:31:33;100298.06;;;18.44;36.95
60267;BME280;46125;61.360;-149.532;2023-06-19T05:34:02;100300.21;;;19.25;37.26
60267;BME280;46125;61.360;-149.532;2023-06-19T05:36:30;100302.53;;;18.54;36.63
60267;BME280;46125;61.360;-149.532;2023-06-19T05:38:58;100306.62;;;19.13;38.10
60267;BME280;46125;61.360;-149.532;2023-06-19T05:41:27;100307.05;;;19.59;37.88
60267;BME280;46125;61.360;-149.532;2023-06-19T05:43:55;100304.38;;;19.50;34.94
60267;BME280;46125;61.360;-149.532;2023-06-19T05:46:24;100303.70;;;19.90;37.16
60267;BME280;46125;61.360;-149.532;2023-06-19T05:48:53;100302.05;;;19.21;39.09
60267;BME280;46125;61.360;-149.532;2023-06-19T05:51:21;100300.96;;;19.31;37.19
60267;BME280;46125;61.360;-149.532;2023-06-19T05:53:55;100300.20;;;18.36;37.46
60267;BME280;46125;61.360;-149.532;2023-06-19T05:56:23;100299.97;;;19.00;37.33
60267;BME280;46125;61.360;-149.532;2023-06-19T05:58:52;100297.10;;;19.01;36.10
60267;BME280;46125;61.360;-149.532;2023-06-19T06:01:20;100297.10;;;19.18;36.72
60267;BME280;46125;61.360;-149.532;2023-06-19T06:03:54;100300.97;;;19.09;35.11
60267;BME280;46125;61.360;-149.532;2023-06-19T06:06:23;100305.30;;;18.95;34.81
60267;BME280;46125;61.360;-149.532;2023-06-19T06:08:53;100307.02;;;19.47;33.38
60267;BME280;46125;61.360;-149.532;2023-06-19T06:11:23;100308.22;;;19.41;34.60
60267;BME280;46125;61.360;-149.532;2023-06-19T06:13:52;100307.66;;;19.40;34.45
60267;BME280;46125;61.360;-149.532;2023-06-19T06:16:20;100310.05;;;18.72;37.15
60267;BME280;46125;61.360;-149.532;2023-06-19T06:18:49;100307.61;;;18.38;37.87
60267;BME280;46125;61.360;-149.532;2023-06-19T06:21:17;100308.10;;;19.23;36.26
60267;BME280;46125;61.360;-149.532;2023-06-19T06:23:46;100305.17;;;18.74;35.57
60267;BME280;46125;61.360;-149.532;2023-06-19T06:26:14;100308.30;;;19.53;34.62
60267;BME280;46125;61.360;-149.532;2023-06-19T06:28:43;100304.87;;;19.19;36.97
60267;BME280;46125;61.360;-149.532;2023-06-19T06:31:11;100301.84;;;18.42;36.17
60267;BME280;46125;61.360;-149.532;2023-06-19T06:33:40;100299.01;;;18.76;35.88
60267;BME280;46125;61.360;-149.532;2023-06-19T06:36:08;100298.36;;;18.94;37.27
60267;BME280;46125;61.360;-149.532;2023-06-19T06:38:38;100302.27;;;19.47;34.99
60267;BME280;46125;61.360;-149.532;2023-06-19T06:41:06;100299.99;;;19.53;34.00
60267;BME280;46125;61.360;-149.532;2023-06-19T06:43:35;100299.58;;;18.87;37.13
60267;BME280;46125;61.360;-149.532;2023-06-19T06:46:04;100297.41;;;19.26;35.60
60267;BME280;46125;61.360;-149.532;2023-06-19T06:48:32;100298.60;;;19.06;36.35
60267;BME280;46125;61.360;-149.532;2023-06-19T06:51:01;100298.76;;;18.06;39.13
60267;BME280;46125;61.360;-149.532;2023-06-19T06:53:30;100299.24;;;17.94;38.29
60267;BME280;46125;61.360;-149.532;2023-06-19T06:55:59;100300.45;;;17.92;38.37
60267;BME280;46125;61.360;-149.532;2023-06-19T06:58:27;100303.98;;;19.11;37.00
60267;BME280;46125;61.360;-149.532;2023-06-19T07:00:56;100304.65;;;18.53;36.27
60267;BME280;46125;61.360;-149.532;2023-06-19T07:03:24;100305.81;;;18.73;35.97
60267;BME280;46125;61.360;-149.532;2023-06-19T07:05:53;100304.31;;;19.18;34.93
60267;BME280;46125;61.360;-149.532;2023-06-19T07:08:21;100303.10;;;19.30;35.01
60267;BME280;46125;61.360;-149.532;2023-06-19T07:10:51;100304.14;;;19.15;34.94
60267;BME280;46125;61.360;-149.532;2023-06-19T07:13:19;100301.65;;;19.40;34.65
60267;BME280;46125;61.360;-149.532;2023-06-19T07:15:48;100304.26;;;19.34;35.13
60267;BME280;46125;61.360;-149.532;2023-06-19T07:18:16;100305.27;;;19.28;34.58
60267;BME280;46125;61.360;-149.532;2023-06-19T07:20:45;100305.48;;;19.03;35.73
60267;BME280;46125;61.360;-149.532;2023-06-19T07:23:15;100305.63;;;19.02;36.10
60267;BME280;46125;61.360;-149.532;2023-06-19T07:25:45;100307.78;;;18.21;32.99
60267;BME280;46125;61.360;-149.532;2023-06-19T07:28:13;100308.47;;;18.40;32.61
60267;BME280;46125;61.360;-149.532;2023-06-19T07:30:43;100307.58;;;19.08;32.69
60267;BME280;46125;61.360;-149.532;2023-06-19T07:33:11;100307.09;;;18.90;32.81
60267;BME280;46125;61.360;-149.532;2023-06-19T07:35:39;100309.91;;;19.01;34.37
60267;BME280;46125;61.360;-149.532;2023-06-19T07:38:08;100309.35;;;18.49;36.13
60267;BME280;46125;61.360;-149.532;2023-06-19T07:40:37;100306.06;;;18.94;36.82
60267;BME280;46125;61.360;-149.532;2023-06-19T07:43:05;100306.52;;;18.53;36.45
60267;BME280;46125;61.360;-149.532;2023-06-19T07:45:33;100306.56;;;18.52;35.15
60267;BME280;46125;61.360;-149.532;2023-06-19T07:48:03;100307.52;;;18.35;34.63
60267;BME280;46125;61.360;-149.532;2023-06-19T07:50:31;100303.73;;;18.61;33.52
60267;BME280;46125;61.360;-149.532;2023-06-19T07:52:59;100303.41;;;18.35;33.42
60267;BME280;46125;61.360;-149.532;2023-06-19T07:55:28;100304.71;;;18.76;35.49
60267;BME280;46125;61.360;-149.532;2023-06-19T07:57:56;100302.82;;;18.38;34.91
60267;BME280;46125;61.360;-149.532;2023-06-19T08:00:25;100303.24;;;18.03;35.56
60267;BME280;46125;61.360;-149.532;2023-06-19T08:02:53;100304.81;;;18.37;34.60
60267;BME280;46125;61.360;-149.532;2023-06-19T08:05:22;100302.61;;;18.31;34.12
60267;BME280;46125;61.360;-149.532;2023-06-19T08:07:50;100306.45;;;18.54;34.20
60267;BME280;46125;61.360;-149.532;2023-06-19T08:10:19;100310.04;;;18.17;34.50
60267;BME280;46125;61.360;-149.532;2023-06-19T08:12:48;100311.99;;;18.12;34.37
60267;BME280;46125;61.360;-149.532;2023-06-19T08:15:17;100315.87;;;18.04;35.07
60267;BME280;46125;61.360;-149.532;2023-06-19T08:17:45;100313.06;;;18.26;34.31
60267;BME280;46125;61.360;-149.532;2023-06-19T08:20:14;100312.29;;;18.12;32.96
60267;BME280;46125;61.360;-149.532;2023-06-19T08:22:42;100310.02;;;17.76;32.14
60267;BME280;46125;61.360;-149.532;2023-06-19T08:25:11;100309.23;;;18.24;31.80
60267;BME280;46125;61.360;-149.532;2023-06-19T08:27:40;100312.79;;;18.01;31.38
60267;BME280;46125;61.360;-149.532;2023-06-19T08:30:09;100315.13;;;18.43;31.76
60267;BME280;46125;61.360;-149.532;2023-06-19T08:32:38;100318.34;;;17.99;31.10
60267;BME280;46125;61.360;-149.532;2023-06-19T08:35:06;100323.04;;;18.05;30.63
60267;BME280;46125;61.360;-149.532;2023-06-19T08:37:34;100328.63;;;17.99;31.04
60267;BME280;46125;61.360;-149.532;2023-06-19T08:40:03;100327.85;;;18.11;30.67
60267;BME280;46125;61.360;-149.532;2023-06-19T08:42:32;100327.23;;;18.12;31.20
60267;BME280;46125;61.360;-149.532;2023-06-19T08:45:01;100324.51;;;18.10;31.09
60267;BME280;46125;61.360;-149.532;2023-06-19T08:47:30;100331.68;;;18.00;33.08
60267;BME280;46125;61.360;-149.532;2023-06-19T08:49:59;100335.41;;;17.89;31.65
60267;BME280;46125;61.360;-149.532;2023-06-19T08:52:28;100337.37;;;18.01;33.96
60267;BME280;46125;61.360;-149.532;2023-06-19T08:54:56;100336.48;;;17.65;33.43
60267;BME280;46125;61.360;-149.532;2023-06-19T08:57:34;100337.66;;;17.63;35.31
60267;BME280;46125;61.360;-149.532;2023-06-19T09:00:03;100337.71;;;17.62;34.58
60267;BME280;46125;61.360;-149.532;2023-06-19T09:02:41;100341.33;;;17.73;34.12
60267;BME280;46125;61.360;-149.532;2023-06-19T09:05:12;100350.20;;;17.21;35.18
60267;BME280;46125;61.360;-149.532;2023-06-19T09:07:42;100349.44;;;17.25;36.25
60267;BME280;46125;61.360;-149.532;2023-06-19T09:10:16;100350.71;;;16.42;38.27
60267;BME280;46125;61.360;-149.532;2023-06-19T09:12:55;100354.83;;;17.19;38.18
60267;BME280;46125;61.360;-149.532;2023-06-19T09:15:26;100355.93;;;16.58;39.30
60267;BME280;46125;61.360;-149.532;2023-06-19T09:18:01;100356.93;;;16.92;39.37
60267;BME280;46125;61.360;-149.532;2023-06-19T09:20:30;100358.16;;;16.36;38.88
60267;BME280;46125;61.360;-149.532;2023-06-19T09:22:59;100364.74;;;16.06;40.78
60267;BME280;46125;61.360;-149.532;2023-06-19T09:25:28;100361.45;;;16.43;40.86
60267;BME280;46125;61.360;-149.532;2023-06-19T09:27:57;100366.54;;;15.57;43.35
60267;BME280;46125;61.360;-149.532;2023-06-19T09:30:26;100359.42;;;15.44;44.30
60267;BME280;46125;61.360;-149.532;2023-06-19T09:32:54;100352.84;;;15.26;45.17
60267;BME280;46125;61.360;-149.532;2023-06-19T09:35:23;100350.16;;;14.73;45.53
60267;BME280;46125;61.360;-149.532;2023-06-19T09:37:52;100346.26;;;15.18;44.27
60267;BME280;46125;61.360;-149.532;2023-06-19T09:40:22;100348.10;;;15.18;43.54
60267;BME280;46125;61.360;-149.532;2023-06-19T09:42:55;100344.40;;;15.09;43.59
60267;BME280;46125;61.360;-149.532;2023-06-19T09:45:24;100346.29;;;15.35;43.10
60267;BME280;46125;61.360;-149.532;2023-06-19T09:47:56;100342.18;;;14.97;43.67
60267;BME280;46125;61.360;-149.532;2023-06-19T09:50:27;100342.55;;;14.80;45.22
60267;BME280;46125;61.360;-149.532;2023-06-19T09:52:56;100344.52;;;14.60;46.17
60267;BME280;46125;61.360;-149.532;2023-06-19T09:55:25;100345.25;;;14.46;46.18
60267;BME280;46125;61.360;-149.532;2023-06-19T09:57:55;100344.09;;;14.68;45.83
60267;BME280;46125;61.360;-149.532;2023-06-19T10:00:24;100348.46;;;14.84;45.51
60267;BME280;46125;61.360;-149.532;2023-06-19T10:02:52;100349.14;;;14.55;45.72
60267;BME280;46125;61.360;-149.532;2023-06-19T10:05:29;100347.13;;;14.71;45.26
60267;BME280;46125;61.360;-149.532;2023-06-19T10:07:57;100344.64;;;14.04;47.00
60267;BME280;46125;61.360;-149.532;2023-06-19T10:10:26;100342.38;;;14.62;46.63
60267;BME280;46125;61.360;-149.532;2023-06-19T10:12:57;100337.43;;;14.66;46.48
60267;BME280;46125;61.360;-149.532;2023-06-19T10:15:27;100332.48;;;14.39;46.49
60267;BME280;46125;61.360;-149.532;2023-06-19T10:18:01;100332.20;;;14.39;46.54
60267;BME280;46125;61.360;-149.532;2023-06-19T10:20:31;100325.35;;;14.40;46.43
60267;BME280;46125;61.360;-149.532;2023-06-19T10:23:05;100318.52;;;14.27;46.52
60267;BME280;46125;61.360;-149.532;2023-06-19T10:25:35;100314.23;;;14.48;47.03
60267;BME280;46125;61.360;-149.532;2023-06-19T10:28:06;100312.56;;;13.69;47.30
60267;BME280;46125;61.360;-149.532;2023-06-19T10:30:43;100312.34;;;13.85;46.84
60267;BME280;46125;61.360;-149.532;2023-06-19T10:33:12;100314.41;;;13.74;47.73
60267;BME280;46125;61.360;-149.532;2023-06-19T10:35:41;100314.12;;;14.06;46.48
60267;BME280;46125;61.360;-149.532;2023-06-19T10:38:09;100312.24;;;14.11;45.12
60267;BME280;46125;61.360;-149.532;2023-06-19T10:40:38;100311.70;;;14.58;44.28
60267;BME280;46125;61.360;-149.532;2023-06-19T10:43:06;100307.84;;;14.48;44.65
60267;BME280;46125;61.360;-149.532;2023-06-19T10:45:34;100305.02;;;14.39;44.12
60267;BME280;46125;61.360;-149.532;2023-06-19T10:48:04;100304.38;;;14.48;44.37
60267;BME280;46125;61.360;-149.532;2023-06-19T10:50:36;100304.17;;;14.26;43.75
60267;BME280;46125;61.360;-149.532;2023-06-19T10:53:05;100307.41;;;15.03;42.33
60267;BME280;46125;61.360;-149.532;2023-06-19T10:55:34;100309.97;;;15.16;40.65
60267;BME280;46125;61.360;-149.532;2023-06-19T10:58:02;100308.08;;;15.50;39.64
60267;BME280;46125;61.360;-149.532;2023-06-19T11:00:32;100309.17;;;15.78;39.62
60267;BME280;46125;61.360;-149.532;2023-06-19T11:03:00;100311.14;;;16.03;39.52
60267;BME280;46125;61.360;-149.532;2023-06-19T11:05:29;100312.64;;;16.12;39.16
60267;BME280;46125;61.360;-149.532;2023-06-19T11:07:58;100312.20;;;16.31;38.32
60267;BME280;46125;61.360;-149.532;2023-06-19T11:10:28;100312.70;;;16.17;39.10
60267;BME280;46125;61.360;-149.532;2023-06-19T11:12:58;100314.44;;;16.31;37.80
60267;BME280;46125;61.360;-149.532;2023-06-19T11:15:31;100314.58;;;15.62;37.56
60267;BME280;46125;61.360;-149.532;2023-06-19T11:18:00;100319.29;;;16.42;37.11
60267;BME280;46125;61.360;-149.532;2023-06-19T11:20:30;100322.71;;;15.81;39.62
60267;BME280;46125;61.360;-149.532;2023-06-19T11:22:59;100326.22;;;16.14;38.64
60267;BME280;46125;61.360;-149.532;2023-06-19T11:25:36;100326.07;;;15.77;39.87
60267;BME280;46125;61.360;-149.532;2023-06-19T11:28:11;100330.19;;;15.83;39.06
60267;BME280;46125;61.360;-149.532;2023-06-19T11:30:39;100325.23;;;16.26;38.43
60267;BME280;46125;61.360;-149.532;2023-06-19T11:33:16;100328.23;;;16.12;38.37
60267;BME280;46125;61.360;-149.532;2023-06-19T11:35:48;100329.70;;;16.19;38.83
60267;BME280;46125;61.360;-149.532;2023-06-19T11:38:19;100334.13;;;16.10;38.94
60267;BME280;46125;61.360;-149.532;2023-06-19T11:40:47;100334.80;;;16.04;40.71
60267;BME280;46125;61.360;-149.532;2023-06-19T11:43:24;100333.28;;;15.92;41.19
60267;BME280;46125;61.360;-149.532;2023-06-19T11:45:53;100329.17;;;15.51;42.23
60267;BME280;46125;61.360;-149.532;2023-06-19T11:48:24;100324.34;;;15.36;41.77
60267;BME280;46125;61.360;-149.532;2023-06-19T11:50:53;100326.72;;;15.50;41.48
60267;BME280;46125;61.360;-149.532;2023-06-19T11:53:23;100324.89;;;15.45;41.27
60267;BME280;46125;61.360;-149.532;2023-06-19T11:55:52;100323.80;;;15.42;40.49
60267;BME280;46125;61.360;-149.532;2023-06-19T11:58:20;100325.21;;;15.19;39.94
60267;BME280;46125;61.360;-149.532;2023-06-19T12:00:49;100329.39;;;15.38;39.51
60267;BME280;46125;61.360;-149.532;2023-06-19T12:03:17;100331.71;;;15.41;39.05
60267;BME280;46125;61.360;-149.532;2023-06-19T12:05:46;100331.98;;;15.40;38.76
60267;BME280;46125;61.360;-149.532;2023-06-19T12:08:15;100332.16;;;15.67;38.94
60267;BME280;46125;61.360;-149.532;2023-06-19T12:10:43;100333.14;;;15.12;41.05
60267;BME280;46125;61.360;-149.532;2023-06-19T12:13:12;100333.94;;;15.38;41.31
60267;BME280;46125;61.360;-149.532;2023-06-19T12:15:41;100335.25;;;15.48;39.91
60267;BME280;46125;61.360;-149.532;2023-06-19T12:18:10;100337.99;;;15.44;39.62
60267;BME280;46125;61.360;-149.532;2023-06-19T12:20:38;100343.76;;;14.96;42.00
60267;BME280;46125;61.360;-149.532;2023-06-19T12:23:07;100344.57;;;14.95;43.17
60267;BME280;46125;61.360;-149.532;2023-06-19T12:25:35;100347.99;;;14.58;44.14
60267;BME280;46125;61.360;-149.532;2023-06-19T12:28:04;100349.24;;;14.65;44.39
60267;BME280;46125;61.360;-149.532;2023-06-19T12:30:32;100350.42;;;14.35;45.50